Time;durP1;ratioP1;P1;durP2;ratioP2;P2;SDS_P1;SDS_P2;PMS_P1;PMS_P2;Temp;Humidity;BMP_temperature;BMP_pressure;BME280_temperature;BME280_humidity;BME280_pressure;Samples;Min_cycle;Max_cycle;Signal;HPM_P1;HPM_P2
2022/11/12 00:01:02;;;;;;;11.63;8.13;;;5.10;92.00;;;;;;5051543;28;20593;-66
2022/11/12 00:03:29;;;;;;;13.10;9.68;;;5.10;92.10;;;;;;5050769;28;20223;-66
2022/11/12 00:05:56;;;;;;;23.10;9.27;;;5.20;92.30;;;;;;5051322;28;20195;-66
2022/11/12 00:08:23;;;;;;;11.60;8.15;;;5.20;92.40;;;;;;5050942;28;20190;-66
2022/11/12 00:10:52;;;;;;;14.13;8.57;;;5.30;93.10;;;;;;5052366;28;20198;-66
2022/11/12 00:13:19;;;;;;;24.02;9.05;;;5.30;93.40;;;;;;5054681;28;20241;-66
2022/11/12 00:15:47;;;;;;;16.00;8.63;;;5.30;93.80;;;;;;5055315;28;20191;-66
2022/11/12 00:18:14;;;;;;;16.15;9.27;;;5.30;94.10;;;;;;5054726;28;20754;-66
2022/11/12 00:20:41;;;;;;;15.32;8.30;;;5.30;93.80;;;;;;5055091;28;20703;-66
2022/11/12 00:23:08;;;;;;;17.33;8.57;;;5.30;94.00;;;;;;5054539;28;20575;-66
2022/11/12 00:25:36;;;;;;;15.95;8.70;;;5.30;94.30;;;;;;5054779;28;20664;-66
2022/11/12 00:28:06;;;;;;;21.75;8.95;;;5.30;94.20;;;;;;5054424;28;20213;-66
2022/11/12 00:30:35;;;;;;;11.60;9.05;;;5.30;94.00;;;;;;5054770;28;20230;-66
2022/11/12 00:33:03;;;;;;;13.40;9.10;;;5.20;94.00;;;;;;5054117;28;20198;-66
2022/11/12 00:35:31;;;;;;;20.48;9.02;;;5.20;94.10;;;;;;5054449;28;20244;-66
2022/11/12 00:37:59;;;;;;;17.63;10.80;;;5.30;94.20;;;;;;5054160;28;20684;-66
2022/11/12 00:40:27;;;;;;;12.75;8.80;;;5.40;94.10;;;;;;5054398;28;20277;-66
2022/11/12 00:42:55;;;;;;;14.63;8.00;;;5.50;94.40;;;;;;5053771;28;20194;-66
2022/11/12 00:45:23;;;;;;;10.38;8.20;;;5.50;94.40;;;;;;5054507;28;20198;-66
2022/11/12 00:47:53;;;;;;;12.02;7.97;;;5.60;94.40;;;;;;5053849;28;20197;-66
2022/11/12 00:50:21;;;;;;;11.40;8.82;;;5.70;94.10;;;;;;5054229;28;20187;-66
2022/11/12 00:52:48;;;;;;;24.33;8.23;;;5.70;93.60;;;;;;5054152;28;20194;-67
2022/11/12 00:55:15;;;;;;;13.95;8.52;;;5.60;93.00;;;;;;5053887;28;20190;-67
2022/11/12 00:57:42;;;;;;;17.27;8.70;;;5.60;93.20;;;;;;5054223;28;20583;-67
2022/11/12 01:00:16;;;;;;;14.35;8.38;;;5.60;93.40;;;;;;5053894;28;20599;-67
2022/11/12 01:02:45;;;;;;;11.98;8.10;;;5.60;93.40;;;;;;5054134;28;20613;-67
2022/11/12 01:05:12;;;;;;;11.38;8.68;;;5.60;93.20;;;;;;5053719;28;20637;-67
2022/11/12 01:07:40;;;;;;;15.27;10.23;;;5.50;93.10;;;;;;5053629;28;20710;-67
2022/11/12 01:10:08;;;;;;;21.25;10.00;;;5.50;93.10;;;;;;5053942;28;20263;-68
2022/11/12 01:12:36;;;;;;;18.02;7.80;;;5.50;93.30;;;;;;5053493;28;20195;-68
2022/11/12 01:15:03;;;;;;;16.90;7.97;;;5.50;93.50;;;;;;5053844;28;20194;-68
2022/11/12 01:17:30;;;;;;;12.35;6.60;;;5.40;93.50;;;;;;5053389;28;20217;-67
2022/11/12 01:19:59;;;;;;;14.48;7.40;;;5.30;94.10;;;;;;5053809;28;20356;-67
2022/11/12 01:22:26;;;;;;;15.85;7.78;;;5.30;94.40;;;;;;5053079;28;20190;-65
2022/11/12 01:24:55;;;;;;;20.25;7.30;;;5.30;94.40;;;;;;5053780;28;20194;-67
2022/11/12 01:27:22;;;;;;;16.42;7.35;;;5.30;94.40;;;;;;5053247;28;20182;-67
2022/11/12 01:29:49;;;;;;;11.82;7.45;;;5.20;94.50;;;;;;5053623;28;20264;-68
2022/11/12 01:32:17;;;;;;;13.88;7.60;;;5.20;94.60;;;;;;5053021;28;20187;-67
2022/11/12 01:34:44;;;;;;;16.30;7.90;;;5.20;95.10;;;;;;5053814;28;20198;-68
2022/11/12 01:37:12;;;;;;;14.32;7.40;;;5.20;95.20;;;;;;5053173;28;20214;-68
2022/11/12 01:39:39;;;;;;;13.90;6.07;;;5.10;95.60;;;;;;5053378;28;20202;-68
2022/11/12 01:42:06;;;;;;;14.35;7.00;;;5.00;96.10;;;;;;5052846;28;20182;-67
2022/11/12 01:44:35;;;;;;;13.68;7.13;;;4.90;96.40;;;;;;5053434;28;20194;-67
2022/11/12 01:47:06;;;;;;;13.75;8.05;;;4.80;96.70;;;;;;5053150;28;20195;-67
2022/11/12 01:49:41;;;;;;;21.20;8.15;;;4.80;97.20;;;;;;5053369;28;20204;-67
2022/11/12 01:52:17;;;;;;;15.73;8.15;;;4.80;97.60;;;;;;5053057;28;20261;-67
2022/11/12 01:54:49;;;;;;;20.75;8.70;;;4.90;97.90;;;;;;5053265;28;20201;-68
2022/11/12 01:57:19;;;;;;;13.57;6.20;;;4.90;98.10;;;;;;5052911;28;20583;-67
2022/11/12 01:59:49;;;;;;;16.38;7.25;;;5.00;98.30;;;;;;5052522;28;20179;-67
2022/11/12 02:02:16;;;;;;;11.88;6.82;;;5.00;98.40;;;;;;5053304;28;20289;-67
2022/11/12 02:04:44;;;;;;;18.77;7.15;;;5.00;98.90;;;;;;5052601;28;20710;-67
2022/11/12 02:07:14;;;;;;;19.00;6.72;;;5.10;98.90;;;;;;5053062;28;20194;-66
2022/11/12 02:09:41;;;;;;;10.25;5.97;;;5.10;98.50;;;;;;5052546;28;20186;-66
2022/11/12 02:13:56;;;;;;;11.73;5.72;;;5.00;98.50;;;;;;5052932;28;20233;-67
2022/11/12 02:14:55;;;;;;;18.75;6.65;;;5.10;98.50;;;;;;5052615;28;20201;-66
2022/11/12 02:17:22;;;;;;;9.85;5.28;;;5.10;98.40;;;;;;5052760;28;20221;-66
2022/11/12 02:19:51;;;;;;;9.05;5.60;;;5.10;98.50;;;;;;5052224;28;20193;-66
2022/11/12 02:22:20;;;;;;;17.73;5.90;;;5.20;98.60;;;;;;5052657;28;20199;-68
2022/11/12 02:24:47;;;;;;;8.82;5.40;;;5.20;98.40;;;;;;5052421;28;20640;-67
2022/11/12 02:27:14;;;;;;;14.05;5.35;;;5.10;98.30;;;;;;5052769;28;20551;-67
2022/11/12 02:29:45;;;;;;;12.40;6.10;;;5.10;98.50;;;;;;5051617;28;20193;-67
2022/11/12 02:32:12;;;;;;;13.05;5.00;;;5.10;98.90;;;;;;5052749;28;20652;-67
2022/11/12 02:34:40;;;;;;;10.20;5.88;;;5.10;99.50;;;;;;5051846;28;20244;-67
2022/11/12 02:37:08;;;;;;;12.13;5.97;;;5.10;99.30;;;;;;5051903;28;20284;-67
2022/11/12 02:39:36;;;;;;;12.25;6.40;;;5.10;99.00;;;;;;5052427;28;20556;-66
2022/11/12 02:42:04;;;;;;;12.60;6.28;;;5.10;99.00;;;;;;5051552;28;20608;-66
2022/11/12 02:44:31;;;;;;;16.08;5.97;;;5.00;98.90;;;;;;5051976;28;20241;-67
2022/11/12 02:46:59;;;;;;;7.70;4.57;;;5.00;99.50;;;;;;5051890;28;20189;-67
2022/11/12 02:49:26;;;;;;;7.63;5.50;;;4.90;99.50;;;;;;5052264;28;20285;-68
2022/11/12 02:51:53;;;;;;;12.02;6.43;;;5.00;99.80;;;;;;5051822;28;20252;-67
2022/11/12 02:54:20;;;;;;;10.63;5.00;;;5.00;99.70;;;;;;5052145;28;20190;-67
2022/11/12 02:56:49;;;;;;;7.15;5.45;;;5.00;99.40;;;;;;5052371;28;20191;-68
2022/11/12 02:59:16;;;;;;;6.97;4.82;;;5.00;99.30;;;;;;5051740;28;20288;-67
2022/11/12 03:01:43;;;;;;;9.90;5.07;;;5.00;99.30;;;;;;5052249;28;20194;-67
2022/11/12 03:04:10;;;;;;;5.72;4.60;;;5.00;99.00;;;;;;5052155;28;20297;-67
2022/11/12 03:06:38;;;;;;;9.93;5.40;;;5.00;98.90;;;;;;5052416;28;20205;-67
2022/11/12 03:09:05;;;;;;;6.80;5.40;;;5.00;98.40;;;;;;5051740;28;20182;-67
2022/11/12 03:11:34;;;;;;;13.05;5.13;;;5.00;98.50;;;;;;5051551;28;20190;-68
2022/11/12 03:14:03;;;;;;;12.70;6.60;;;5.10;98.60;;;;;;5051803;28;20522;-67
2022/11/12 03:16:30;;;;;;;9.40;5.45;;;5.10;98.80;;;;;;5052034;28;20286;-67
2022/11/12 03:18:57;;;;;;;9.20;5.57;;;5.20;98.50;;;;;;5051521;28;20312;-67
2022/11/12 03:21:24;;;;;;;10.90;5.55;;;5.10;97.80;;;;;;5052154;28;20187;-66
2022/11/12 03:23:52;;;;;;;15.18;6.13;;;5.10;97.70;;;;;;5051766;28;20190;-66
2022/11/12 03:26:19;;;;;;;12.27;5.68;;;5.00;98.50;;;;;;5052140;28;20217;-66
2022/11/12 03:28:46;;;;;;;5.50;4.50;;;5.00;98.70;;;;;;5051405;28;20192;-66
2022/11/12 03:31:16;;;;;;;6.97;5.25;;;5.00;98.70;;;;;;5051929;28;20205;-67
2022/11/12 03:33:43;;;;;;;8.15;5.43;;;5.00;98.80;;;;;;5051716;28;20187;-65
2022/11/12 03:36:10;;;;;;;11.20;5.45;;;5.10;98.60;;;;;;5051358;28;20244;-67
2022/11/12 03:38:38;;;;;;;10.48;6.00;;;5.10;98.40;;;;;;5051403;28;20241;-68
2022/11/12 03:41:05;;;;;;;13.55;5.32;;;5.10;98.30;;;;;;5051883;28;20194;-67
2022/11/12 03:43:32;;;;;;;9.52;5.10;;;5.10;98.20;;;;;;5051248;28;20187;-67
2022/11/12 03:46:00;;;;;;;6.97;5.05;;;5.10;98.30;;;;;;5052810;28;20190;-68
2022/11/12 03:48:29;;;;;;;7.95;4.70;;;5.00;98.10;;;;;;5055079;28;20183;-68
2022/11/12 03:50:58;;;;;;;6.97;4.80;;;5.10;98.10;;;;;;5055346;28;20194;-68
2022/11/12 03:53:26;;;;;;;14.10;5.47;;;5.10;97.90;;;;;;5055038;28;20665;-68
2022/11/12 03:55:53;;;;;;;12.45;5.40;;;5.10;97.80;;;;;;5055193;28;20193;-68
2022/11/12 03:58:20;;;;;;;7.90;4.97;;;5.10;97.90;;;;;;5055353;28;20703;-68
2022/11/12 04:00:47;;;;;;;16.48;4.68;;;5.00;97.90;;;;;;5054912;28;20198;-67
2022/11/12 04:03:14;;;;;;;6.97;4.45;;;5.00;98.10;;;;;;5055273;28;20234;-68
2022/11/12 04:08:36;;;;;;;8.63;4.55;;;5.10;97.80;;;;;;5055264;28;20338;-68
2022/11/12 04:11:05;;;;;;;4.47;3.80;;;5.10;97.80;;;;;;5054941;28;20190;-68
2022/11/12 04:13:32;;;;;;;7.20;4.35;;;5.10;97.50;;;;;;5055145;28;20564;-67
2022/11/12 04:21:56;;;;;;;8.15;5.30;;;5.20;97.30;;;;;;5035258;28;20198;-68
2022/11/12 04:27:13;;;;;;;8.43;4.50;;;5.20;97.40;;;;;;5055154;28;20193;-68
2022/11/12 04:32:25;;;;;;;8.57;5.85;;;5.20;97.00;;;;;;5054715;28;20264;-67
2022/11/12 04:34:53;;;;;;;7.45;5.55;;;5.10;96.80;;;;;;5054765;28;20198;-68
2022/11/12 04:37:22;;;;;;;7.85;4.90;;;5.10;96.80;;;;;;5054684;28;20186;-68
2022/11/12 04:39:49;;;;;;;10.32;8.40;;;5.00;96.30;;;;;;5054409;28;20193;-68
2022/11/12 04:45:16;;;;;;;8.05;5.35;;;5.00;97.00;;;;;;4999314;28;20192;-68
2022/11/12 04:47:43;;;;;;;12.98;5.30;;;5.00;96.40;;;;;;4992840;28;20236;-68
2022/11/12 04:50:16;;;;;;;12.20;5.30;;;5.00;96.40;;;;;;5023207;28;20529;-68
2022/11/12 04:52:44;;;;;;;10.27;5.75;;;5.00;96.40;;;;;;5054718;28;20369;-67
2022/11/12 04:55:12;;;;;;;7.47;5.85;;;5.00;96.30;;;;;;5054002;28;20583;-67
2022/11/12 04:57:39;;;;;;;10.48;6.30;;;5.00;96.20;;;;;;5053915;28;20186;-67
2022/11/12 05:00:08;;;;;;;8.02;5.32;;;4.90;96.10;;;;;;5053840;28;20193;-68
2022/11/12 05:02:35;;;;;;;6.25;4.68;;;4.90;96.20;;;;;;5054045;28;20657;-68
2022/11/12 05:05:02;;;;;;;7.78;4.22;;;5.00;96.20;;;;;;5053644;28;20209;-67
2022/11/12 05:07:32;;;;;;;6.40;4.05;;;5.00;96.30;;;;;;5053983;28;20274;-68
2022/11/12 05:10:00;;;;;;;7.30;4.88;;;5.00;96.30;;;;;;5053501;28;20186;-67
2022/11/12 05:12:27;;;;;;;5.85;4.47;;;5.00;96.20;;;;;;5054212;28;20190;-68
2022/11/12 05:14:54;;;;;;;8.93;6.00;;;5.00;96.10;;;;;;5053634;28;20645;-67
2022/11/12 05:17:22;;;;;;;9.82;4.70;;;5.00;96.20;;;;;;5054134;28;20209;-67
2022/11/12 05:19:49;;;;;;;9.18;5.57;;;5.00;96.00;;;;;;5053537;28;20229;-68
2022/11/12 05:22:16;;;;;;;12.07;5.45;;;5.00;95.90;;;;;;5053968;28;20194;-68
2022/11/12 05:24:45;;;;;;;10.77;5.30;;;5.00;96.20;;;;;;5053892;28;20193;-67
2022/11/12 05:27:15;;;;;;;8.52;4.82;;;5.00;96.20;;;;;;5053585;28;20202;-66
2022/11/12 05:29:42;;;;;;;8.13;4.85;;;4.90;96.30;;;;;;5053768;28;20801;-66
2022/11/12 05:32:12;;;;;;;9.10;4.25;;;4.90;96.70;;;;;;5053755;28;20205;-66
2022/11/12 05:34:40;;;;;;;7.45;4.47;;;4.80;96.60;;;;;;5033741;28;20192;-66
2022/11/12 05:37:08;;;;;;;8.13;4.53;;;4.80;96.90;;;;;;5033752;28;20673;-66
2022/11/12 05:39:35;;;;;;;5.57;3.40;;;4.70;97.20;;;;;;5053049;28;20246;-66
2022/11/12 05:42:02;;;;;;;4.97;3.75;;;4.70;97.30;;;;;;5053584;28;20558;-66
2022/11/12 05:44:31;;;;;;;7.63;4.53;;;4.60;97.40;;;;;;5053059;28;20187;-66
2022/11/12 05:46:58;;;;;;;5.07;3.72;;;4.60;97.10;;;;;;5053264;28;20194;-66
2022/11/12 05:49:25;;;;;;;6.05;4.18;;;4.50;97.00;;;;;;5053178;28;20194;-66
2022/11/12 05:51:53;;;;;;;6.70;4.20;;;4.50;96.90;;;;;;5053356;28;20194;-66
2022/11/12 05:54:20;;;;;;;5.75;3.55;;;4.60;96.70;;;;;;5052726;28;20218;-66
2022/11/12 05:56:47;;;;;;;6.63;5.00;;;4.60;97.10;;;;;;5053257;28;20289;-66
2022/11/12 05:59:15;;;;;;;5.70;4.60;;;4.60;96.40;;;;;;5052471;28;20214;-66
2022/11/12 06:01:43;;;;;;;5.78;3.60;;;4.60;96.30;;;;;;5053197;28;20289;-67
2022/11/12 06:04:12;;;;;;;7.47;3.85;;;4.60;96.20;;;;;;5052498;28;20345;-67
2022/11/12 06:06:40;;;;;;;5.68;3.95;;;4.70;96.20;;;;;;5053112;28;20244;-67
2022/11/12 06:09:08;;;;;;;7.07;4.00;;;4.70;96.00;;;;;;5051832;28;20189;-67
2022/11/12 06:11:35;;;;;;;8.88;4.30;;;4.60;95.80;;;;;;5053085;28;20202;-67
2022/11/12 06:14:03;;;;;;;6.50;3.88;;;4.60;95.70;;;;;;5052315;28;20218;-67
2022/11/12 06:16:30;;;;;;;5.32;4.00;;;4.60;95.70;;;;;;5052451;28;20648;-67
2022/11/12 06:18:59;;;;;;;5.15;4.03;;;4.60;95.80;;;;;;5052704;28;20316;-67
2022/11/12 06:21:27;;;;;;;4.80;3.78;;;4.60;96.00;;;;;;5052187;28;20190;-67
2022/11/12 06:23:56;;;;;;;6.78;4.47;;;4.60;95.90;;;;;;5052576;28;20644;-67
2022/11/12 06:26:25;;;;;;;5.90;4.32;;;4.60;96.20;;;;;;5052441;28;20190;-67
2022/11/12 06:28:53;;;;;;;12.65;5.45;;;4.70;96.30;;;;;;5052562;28;20554;-67
2022/11/12 06:31:21;;;;;;;13.10;4.93;;;4.70;96.10;;;;;;5052197;28;20273;-66
2022/11/12 06:33:48;;;;;;;15.43;5.45;;;4.70;96.10;;;;;;5052876;28;20198;-67
2022/11/12 06:36:19;;;;;;;16.63;6.50;;;4.60;95.90;;;;;;5052210;28;20656;-67
2022/11/12 06:38:46;;;;;;;10.27;5.30;;;4.60;96.10;;;;;;5052357;28;20675;-68
2022/11/12 06:41:14;;;;;;;7.97;5.05;;;4.60;96.00;;;;;;5052158;28;20225;-67
2022/11/12 06:43:42;;;;;;;24.02;7.43;;;4.60;96.00;;;;;;5052357;28;20248;-67
2022/11/12 06:46:12;;;;;;;9.82;6.47;;;4.50;96.20;;;;;;5051945;28;20691;-68
2022/11/12 06:48:40;;;;;;;8.80;7.28;;;4.50;96.60;;;;;;5052102;28;20256;-67
2022/11/12 06:51:10;;;;;;;16.17;7.63;;;4.50;96.60;;;;;;5051821;28;20201;-66
2022/11/12 06:53:38;;;;;;;19.10;8.80;;;4.60;96.70;;;;;;5051712;28;20186;-66
2022/11/12 06:56:07;;;;;;;14.27;8.35;;;4.60;96.70;;;;;;5051900;28;20531;-66
2022/11/12 06:58:35;;;;;;;15.43;7.63;;;4.70;96.70;;;;;;5051505;28;20625;-66
2022/11/12 07:01:06;;;;;;;21.75;8.10;;;4.80;96.50;;;;;;5052216;28;20271;-66
2022/11/12 07:03:34;;;;;;;16.52;8.35;;;4.80;96.50;;;;;;5052026;28;20253;-67
2022/11/12 07:06:05;;;;;;;18.30;8.40;;;4.80;96.40;;;;;;5032499;28;20209;-67
2022/11/12 07:08:32;;;;;;;20.10;7.47;;;4.90;96.10;;;;;;5032495;28;20278;-66
2022/11/12 07:11:01;;;;;;;16.92;9.07;;;4.80;96.10;;;;;;5051797;28;20277;-66
2022/11/12 07:13:30;;;;;;;26.60;16.70;;;4.80;96.00;;;;;;5052193;28;20672;-66
2022/11/12 07:15:58;;;;;;;31.83;22.65;;;4.80;95.90;;;;;;5051533;28;20191;-66
2022/11/12 07:18:26;;;;;;;29.65;15.30;;;4.70;95.90;;;;;;5052145;28;20213;-66
2022/11/12 07:20:57;;;;;;;22.60;10.95;;;4.80;96.30;;;;;;5054676;28;20712;-67
2022/11/12 07:23:24;;;;;;;14.77;9.10;;;4.80;96.50;;;;;;5056387;28;20201;-67
2022/11/12 07:25:56;;;;;;;14.13;9.65;;;4.90;96.70;;;;;;5055711;28;20187;-67
2022/11/12 07:28:25;;;;;;;28.33;10.73;;;5.10;96.80;;;;;;5056228;28;20190;-67
2022/11/12 07:30:57;;;;;;;22.48;11.05;;;5.10;96.50;;;;;;5055526;28;20186;-66
2022/11/12 07:33:25;;;;;;;13.85;10.00;;;5.20;96.70;;;;;;5051390;28;20190;-67
2022/11/12 07:36:00;;;;;;;16.55;9.75;;;5.30;96.60;;;;;;5052311;28;20214;-66
2022/11/12 07:38:28;;;;;;;17.00;10.57;;;5.40;95.60;;;;;;5054038;28;20185;-66
2022/11/12 07:41:00;;;;;;;13.85;9.77;;;5.50;95.40;;;;;;5054124;28;20213;-67
2022/11/12 07:43:28;;;;;;;12.68;8.63;;;5.60;95.20;;;;;;5049695;28;20214;-67
2022/11/12 07:45:59;;;;;;;16.33;8.25;;;5.70;94.30;;;;;;5053492;28;20194;-67
2022/11/12 07:48:26;;;;;;;15.65;9.40;;;5.90;93.90;;;;;;5054248;28;20232;-67
2022/11/12 07:50:53;;;;;;;9.75;8.70;;;6.00;94.00;;;;;;5054630;28;20199;-66
2022/11/12 07:53:20;;;;;;;17.98;10.55;;;6.00;93.80;;;;;;5054552;28;20248;-66
2022/11/12 07:55:54;;;;;;;12.80;8.70;;;6.10;93.40;;;;;;5054566;28;20590;-66
2022/11/12 07:58:21;;;;;;;10.77;9.35;;;6.30;93.50;;;;;;5054155;28;20221;-68
2022/11/12 08:00:49;;;;;;;12.43;9.70;;;6.50;93.40;;;;;;5054508;28;20641;-67
2022/11/12 08:03:17;;;;;;;10.88;9.00;;;6.70;92.60;;;;;;5053007;28;20217;-68
2022/11/12 08:05:44;;;;;;;10.10;8.85;;;6.90;92.50;;;;;;5053762;28;20237;-68
2022/11/12 08:08:11;;;;;;;14.10;10.20;;;7.30;92.20;;;;;;5049217;28;20270;-68
2022/11/12 08:10:38;;;;;;;10.05;8.45;;;7.60;91.70;;;;;;5050863;28;20252;-67
2022/11/12 08:13:05;;;;;;;9.40;8.43;;;7.90;90.90;;;;;;5052521;28;20212;-67
2022/11/12 08:15:32;;;;;;;9.32;7.93;;;8.30;90.30;;;;;;5052696;28;20194;-68
2022/11/12 08:18:01;;;;;;;7.10;6.32;;;8.40;87.20;;;;;;5053259;28;20593;-67
2022/11/12 08:20:28;;;;;;;9.70;7.93;;;8.60;86.30;;;;;;5053207;28;20704;-67
2022/11/12 08:22:59;;;;;;;8.57;7.03;;;8.80;86.60;;;;;;5053315;28;20222;-67
2022/11/12 08:25:26;;;;;;;8.18;6.82;;;9.10;84.60;;;;;;5048687;28;20190;-68
2022/11/12 08:27:57;;;;;;;11.07;7.60;;;9.50;84.70;;;;;;5053373;28;20225;-68
2022/11/12 08:30:24;;;;;;;7.72;6.95;;;10.10;82.80;;;;;;5052840;28;20278;-67
2022/11/12 08:32:56;;;;;;;11.82;8.68;;;10.80;81.30;;;;;;5051790;28;20191;-68
2022/11/12 08:35:25;;;;;;;12.23;8.65;;;11.50;78.00;;;;;;5052361;28;20244;-68
2022/11/12 08:37:57;;;;;;;11.68;10.00;;;11.90;72.70;;;;;;5052959;28;20621;-68
2022/11/12 08:40:24;;;;;;;7.82;7.03;;;12.50;72.40;;;;;;5050514;28;20247;-68
2022/11/12 08:42:57;;;;;;;8.27;7.20;;;13.30;69.80;;;;;;5051401;28;20217;-68
2022/11/12 08:45:24;;;;;;;7.60;6.28;;;14.10;66.60;;;;;;5051826;28;20284;-68
2022/11/12 08:47:51;;;;;;;10.05;6.97;;;14.70;62.80;;;;;;5050399;28;20193;-66
2022/11/12 08:50:24;;;;;;;11.32;6.38;;;14.90;59.80;;;;;;5052345;28;20186;-67
2022/11/12 08:52:51;;;;;;;7.63;5.50;;;15.00;56.60;;;;;;5052321;28;20279;-67
2022/11/12 08:55:18;;;;;;;7.60;5.30;;;15.00;57.90;;;;;;5052355;28;20186;-67
2022/11/12 08:57:45;;;;;;;5.53;4.60;;;15.10;56.00;;;;;;5052056;28;20436;-68
2022/11/12 09:00:14;;;;;;;4.40;3.67;;;15.30;56.50;;;;;;5051920;28;20564;-66
2022/11/12 09:02:41;;;;;;;8.00;4.10;;;15.40;54.40;;;;;;5051913;28;20441;-66
2022/11/12 09:05:08;;;;;;;4.30;3.90;;;15.30;55.00;;;;;;5052160;28;20472;-67
2022/11/12 09:07:36;;;;;;;4.60;4.13;;;15.30;54.80;;;;;;5052655;28;20432;-67
2022/11/12 09:10:04;;;;;;;4.77;3.90;;;15.10;55.00;;;;;;5051965;28;21023;-66
2022/11/12 09:12:31;;;;;;;5.87;4.00;;;14.80;54.50;;;;;;5052175;28;20486;-67
2022/11/12 09:14:58;;;;;;;4.27;3.87;;;14.40;56.00;;;;;;5051527;28;20461;-67
2022/11/12 09:17:25;;;;;;;3.87;3.47;;;14.30;57.00;;;;;;5052497;28;20464;-67
2022/11/12 09:19:52;;;;;;;4.10;3.67;;;14.30;56.70;;;;;;5052231;28;20488;-67
2022/11/12 09:22:19;;;;;;;5.30;4.17;;;14.30;56.70;;;;;;5051851;28;20904;-67
2022/11/12 09:24:47;;;;;;;4.30;3.30;;;14.10;57.60;;;;;;5051685;28;20461;-67
2022/11/12 09:27:14;;;;;;;3.70;3.20;;;14.00;57.60;;;;;;5051958;28;20436;-67
2022/11/12 09:29:41;;;;;;;10.43;6.90;;;14.10;58.10;;;;;;5051870;28;20431;-67
2022/11/12 09:32:08;;;;;;;6.00;4.27;;;14.10;58.80;;;;;;5051313;28;20832;-69
2022/11/12 09:34:35;;;;;;;6.90;5.60;;;14.20;59.10;;;;;;5050801;28;20444;-68
2022/11/12 09:37:02;;;;;;;5.83;3.63;;;14.40;58.70;;;;;;5051563;28;21045;-67
2022/11/12 09:39:30;;;;;;;5.10;4.00;;;14.70;59.60;;;;;;5050693;28;20490;-67
2022/11/12 09:41:58;;;;;;;6.50;4.50;;;15.00;59.20;;;;;;5050619;28;20440;-67
2022/11/12 09:44:25;;;;;;;4.30;3.77;;;15.20;58.60;;;;;;5050652;28;20437;-66
2022/11/12 09:46:57;;;;;;;4.50;3.07;;;15.30;57.10;;;;;;5051719;28;20495;-67
2022/11/12 09:49:28;;;;;;;5.13;3.50;;;15.20;56.70;;;;;;5051804;28;20444;-68
2022/11/12 09:51:59;;;;;;;4.90;4.07;;;15.20;56.60;;;;;;5047852;28;20494;-67
2022/11/12 09:54:28;;;;;;;4.70;4.20;;;15.10;57.40;;;;;;5052088;28;20902;-68
2022/11/12 09:56:55;;;;;;;10.07;8.77;;;15.20;58.20;;;;;;5049770;28;20473;-67
2022/11/12 09:59:28;;;;;;;5.20;4.77;;;15.20;58.10;;;;;;5051508;28;20507;-68
2022/11/12 10:02:01;;;;;;;5.27;4.37;;;15.30;58.10;;;;;;5050708;28;20441;-67
2022/11/12 10:04:56;;;;;;;3.70;3.23;;;15.50;57.30;;;;;;5050980;28;20947;-67
2022/11/12 10:07:36;;;;;;;3.63;3.10;;;15.80;57.80;;;;;;5047543;28;20464;-68
2022/11/12 10:10:09;;;;;;;4.30;3.17;;;16.20;57.30;;;;;;5051650;28;20776;-67
2022/11/12 10:12:48;;;;;;;5.57;3.07;;;16.70;56.50;;;;;;5048049;28;20435;-68
2022/11/12 10:18:56;;;;;;;4.53;3.10;;;17.30;53.90;;;;;;5048407;28;20530;-67
2022/11/12 10:21:32;;;;;;;4.00;2.87;;;17.30;53.00;;;;;;5051698;28;20445;-67
2022/11/12 10:24:01;;;;;;;4.13;3.27;;;17.10;52.90;;;;;;5050294;28;20451;-68
2022/11/12 10:26:30;;;;;;;4.00;3.17;;;16.90;54.00;;;;;;5050279;28;20467;-67
2022/11/12 10:29:02;;;;;;;4.13;3.20;;;16.70;53.60;;;;;;5046653;28;20810;-67
2022/11/12 10:31:31;;;;;;;3.93;3.53;;;16.60;54.20;;;;;;5050043;28;20461;-67
2022/11/12 10:34:15;;;;;;;3.53;2.90;;;16.40;54.50;;;;;;5042198;28;20472;-68
2022/11/12 10:36:45;;;;;;;5.37;3.90;;;16.30;55.50;;;;;;5048090;28;20444;-68
2022/11/12 10:39:32;;;;;;;5.37;3.57;;;16.10;55.90;;;;;;5050635;28;20526;-67
2022/11/12 10:42:05;;;;;;;11.20;3.50;;;16.10;56.40;;;;;;5045059;28;20939;-67
2022/11/12 10:44:32;;;;;;;6.50;4.27;;;16.20;56.60;;;;;;5050160;28;20441;-68
2022/11/12 10:47:27;;;;;;;2.93;2.60;;;16.30;57.00;;;;;;5049748;28;20523;-67
2022/11/12 10:50:20;;;;;;;6.20;3.77;;;16.30;57.30;;;;;;5049823;28;20436;-68
2022/11/12 10:52:54;;;;;;;3.90;3.13;;;16.20;57.30;;;;;;5027010;28;20527;-68
2022/11/12 10:55:24;;;;;;;5.30;3.57;;;16.10;57.50;;;;;;5050700;28;20803;-67
2022/11/12 10:58:21;;;;;;;4.17;3.73;;;16.00;57.20;;;;;;5050262;28;20437;-68
2022/11/12 11:00:58;;;;;;;5.60;3.80;;;16.00;57.80;;;;;;5050399;28;20484;-68
2022/11/12 11:03:29;;;;;;;6.10;4.07;;;16.00;58.00;;;;;;5044963;28;20476;-67
2022/11/12 11:06:01;;;;;;;6.27;3.70;;;16.10;58.10;;;;;;5048232;28;20528;-67
2022/11/12 11:08:37;;;;;;;4.70;3.80;;;16.20;57.30;;;;;;5050297;28;20989;-67
2022/11/12 11:11:25;;;;;;;24.03;4.80;;;16.20;57.30;;;;;;5049286;28;20440;-67
2022/11/12 11:13:54;;;;;;;11.83;6.07;;;16.20;57.30;;;;;;5050178;28;20812;-68
2022/11/12 11:16:23;;;;;;;9.10;5.73;;;16.20;56.80;;;;;;5050162;28;20441;-68
2022/11/12 11:18:55;;;;;;;5.47;3.40;;;16.00;57.30;;;;;;5046484;28;20441;-67
2022/11/12 11:21:57;;;;;;;5.07;3.57;;;15.90;57.20;;;;;;5049263;28;20834;-66
2022/11/12 11:24:42;;;;;;;6.23;3.60;;;15.90;58.50;;;;;;5049803;28;20441;-67
2022/11/12 11:27:22;;;;;;;18.43;4.70;;;15.90;58.00;;;;;;5047977;28;20440;-68
2022/11/12 11:30:03;;;;;;;10.37;4.57;;;15.70;58.70;;;;;;5046566;28;20433;-69
2022/11/12 11:32:46;;;;;;;8.20;4.63;;;15.60;58.90;;;;;;5050241;28;20511;-67
2022/11/12 11:35:24;;;;;;;15.73;4.50;;;15.50;60.10;;;;;;5049832;28;20456;-68
2022/11/12 11:38:03;;;;;;;5.70;4.40;;;15.50;60.10;;;;;;5050007;28;20527;-67
2022/11/12 11:40:36;;;;;;;4.77;3.80;;;15.50;60.10;;;;;;5049652;28;20560;-67
2022/11/12 11:43:20;;;;;;;5.00;3.67;;;15.70;60.80;;;;;;5050401;28;20440;-67
2022/11/12 11:45:59;;;;;;;4.00;3.47;;;15.70;60.00;;;;;;5049670;28;20490;-68
2022/11/12 11:48:39;;;;;;;4.30;3.60;;;15.60;60.50;;;;;;5050473;28;20440;-67
2022/11/12 11:51:20;;;;;;;4.90;4.30;;;15.50;61.00;;;;;;5046332;28;20463;-67
2022/11/12 11:53:56;;;;;;;4.80;3.77;;;15.30;60.50;;;;;;5049786;28;20448;-68
2022/11/12 11:56:27;;;;;;;5.90;3.90;;;15.30;61.80;;;;;;5047508;28;20440;-67
2022/11/12 11:59:11;;;;;;;6.07;5.27;;;15.30;63.30;;;;;;5050095;28;20893;-67
2022/11/12 12:01:54;;;;;;;6.37;4.60;;;15.30;62.60;;;;;;5047847;28;20480;-67
2022/11/12 12:04:34;;;;;;;6.30;4.80;;;15.30;62.60;;;;;;5046395;28;20932;-68
2022/11/12 12:07:13;;;;;;;5.67;5.03;;;15.50;62.60;;;;;;5050901;28;20801;-68
2022/11/12 12:09:49;;;;;;;6.70;6.00;;;15.60;63.20;;;;;;5050687;28;20992;-67
2022/11/12 12:12:31;;;;;;;6.80;6.10;;;15.80;62.20;;;;;;5053536;28;20436;-67
2022/11/12 12:15:08;;;;;;;6.80;5.03;;;16.00;61.50;;;;;;5053655;28;20440;-67
2022/11/12 12:17:46;;;;;;;6.33;5.73;;;16.20;61.10;;;;;;5050037;28;20452;-67
2022/11/12 12:20:20;;;;;;;5.90;5.30;;;16.40;60.10;;;;;;5053191;28;20488;-67
2022/11/12 12:22:53;;;;;;;5.93;4.97;;;16.60;59.60;;;;;;5049727;28;20441;-67
2022/11/12 12:25:25;;;;;;;7.73;5.20;;;16.60;59.10;;;;;;5053395;28;20439;-67
2022/11/12 12:28:02;;;;;;;7.20;5.40;;;16.60;59.10;;;;;;5053012;28;20861;-68
2022/11/12 12:30:31;;;;;;;5.47;4.83;;;16.50;58.50;;;;;;5053418;28;20435;-67
2022/11/12 12:33:18;;;;;;;8.67;5.27;;;16.50;58.80;;;;;;5052031;28;20443;-68
2022/11/12 12:35:53;;;;;;;6.33;4.27;;;16.40;59.00;;;;;;5052624;28;20448;-66
2022/11/12 12:38:29;;;;;;;8.37;6.03;;;16.30;59.50;;;;;;5049470;28;20483;-67
2022/11/12 12:41:04;;;;;;;5.60;4.53;;;16.30;59.50;;;;;;5053397;28;20488;-66
2022/11/12 12:43:37;;;;;;;6.00;5.40;;;16.20;59.60;;;;;;5052293;28;20501;-66
2022/11/12 12:46:09;;;;;;;7.17;4.90;;;16.20;60.00;;;;;;5053424;28;20441;-66
2022/11/12 12:48:41;;;;;;;5.33;4.80;;;16.20;60.40;;;;;;5045106;28;20441;-66
2022/11/12 12:51:08;;;;;;;4.70;4.20;;;16.20;61.30;;;;;;5052074;28;21387;-66
2022/11/12 12:53:39;;;;;;;6.63;4.60;;;16.10;60.80;;;;;;5052088;28;20528;-67
2022/11/12 12:56:27;;;;;;;5.37;4.87;;;16.00;61.30;;;;;;5051769;28;21134;-68
2022/11/12 12:59:02;;;;;;;5.90;4.00;;;15.90;62.50;;;;;;5052048;28;20437;-68
2022/11/12 13:01:33;;;;;;;6.17;4.27;;;15.80;62.80;;;;;;5052861;28;20492;-67
2022/11/12 13:04:02;;;;;;;5.20;4.43;;;15.70;63.70;;;;;;5052752;28;20472;-67
2022/11/12 13:06:33;;;;;;;5.03;3.90;;;15.70;64.00;;;;;;5049456;28;20441;-67
2022/11/12 13:09:05;;;;;;;5.17;4.07;;;15.80;63.90;;;;;;5051624;28;20545;-67
2022/11/12 13:14:51;;;;;;;4.40;3.70;;;15.70;63.60;;;;;;5049842;28;20463;-67
2022/11/12 13:17:47;;;;;;;4.40;3.93;;;15.60;63.40;;;;;;5051913;28;20468;-67
2022/11/12 13:20:34;;;;;;;4.70;3.80;;;15.40;63.50;;;;;;5051285;28;20516;-67
2022/11/12 13:23:01;;;;;;;4.10;3.70;;;15.10;64.10;;;;;;5049741;28;20907;-66
2022/11/12 13:25:31;;;;;;;6.17;3.97;;;15.00;64.50;;;;;;5047710;28;20444;-68
2022/11/12 13:28:10;;;;;;;6.67;4.27;;;14.80;64.90;;;;;;5051714;28;20432;-68